sensor_id;sensor_type;location;lat;lon;timestamp;temperature;humidity
43227;DHT22;28839;52.404;9.808;2023-06-04T00:05:32;10.60;99.90
43227;DHT22;28839;52.404;9.808;2023-06-04T00:12:26;10.40;99.90
43227;DHT22;28839;52.404;9.808;2023-06-04T00:19:21;10.20;99.90
43227;DHT22;28839;52.404;9.808;2023-06-04T00:26:15;10.10;99.90
43227;DHT22;28839;52.404;9.808;2023-06-04T00:33:09;10.00;99.90
43227;DHT22;28839;52.404;9.808;2023-06-04T00:40:05;9.80;99.90
43227;DHT22;28839;52.404;9.808;2023-06-04T00:46:59;9.80;99.90
43227;DHT22;28839;52.404;9.808;2023-06-04T00:53:53;9.90;99.90
43227;DHT22;28839;52.404;9.808;2023-06-04T01:00:49;9.80;99.90
43227;DHT22;28839;52.404;9.808;2023-06-04T01:07:45;9.60;99.90
43227;DHT22;28839;52.404;9.808;2023-06-04T01:14:40;9.40;99.90
43227;DHT22;28839;52.404;9.808;2023-06-04T01:21:36;9.30;99.90
43227;DHT22;28839;52.404;9.808;2023-06-04T01:28:34;9.30;99.90
43227;DHT22;28839;52.404;9.808;2023-06-04T01:35:29;9.30;99.90
43227;DHT22;28839;52.404;9.808;2023-06-04T01:42:25;9.20;99.90
43227;DHT22;28839;52.404;9.808;2023-06-04T01:49:19;9.00;99.90
43227;DHT22;28839;52.404;9.808;2023-06-04T01:56:14;9.00;99.90
43227;DHT22;28839;52.404;9.808;2023-06-04T02:03:09;8.80;99.90
43227;DHT22;28839;52.404;9.808;2023-06-04T02:10:06;8.70;99.90
43227;DHT22;28839;52.404;9.808;2023-06-04T02:17:00;8.80;99.90
43227;DHT22;28839;52.404;9.808;2023-06-04T02:23:55;8.60;99.90
43227;DHT22;28839;52.404;9.808;2023-06-04T02:30:49;8.50;99.90
43227;DHT22;28839;52.404;9.808;2023-06-04T02:37:43;8.60;99.90
43227;DHT22;28839;52.404;9.808;2023-06-04T02:44:38;8.40;99.90
43227;DHT22;28839;52.404;9.808;2023-06-04T02:51:32;8.20;99.90
43227;DHT22;28839;52.404;9.808;2023-06-04T02:58:26;8.20;99.90
43227;DHT22;28839;52.404;9.808;2023-06-04T03:05:22;8.20;99.90
43227;DHT22;28839;52.404;9.808;2023-06-04T03:12:19;8.00;99.90
43227;DHT22;28839;52.404;9.808;2023-06-04T03:19:13;8.00;99.90
43227;DHT22;28839;52.404;9.808;2023-06-04T03:26:08;7.90;99.90
43227;DHT22;28839;52.404;9.808;2023-06-04T03:33:05;7.90;99.90
43227;DHT22;28839;52.404;9.808;2023-06-04T03:39:59;8.00;99.90
43227;DHT22;28839;52.404;9.808;2023-06-04T03:46:54;8.10;99.90
43227;DHT22;28839;52.404;9.808;2023-06-04T03:53:48;8.20;99.90
43227;DHT22;28839;52.404;9.808;2023-06-04T04:00:42;8.20;99.90
43227;DHT22;28839;52.404;9.808;2023-06-04T04:07:37;8.20;99.90
43227;DHT22;28839;52.404;9.808;2023-06-04T04:14:30;8.30;99.90
43227;DHT22;28839;52.404;9.808;2023-06-04T04:21:24;8.40;99.90
43227;DHT22;28839;52.404;9.808;2023-06-04T04:28:20;8.60;99.90
43227;DHT22;28839;52.404;9.808;2023-06-04T04:35:14;8.80;99.90
43227;DHT22;28839;52.404;9.808;2023-06-04T04:42:10;8.90;99.90
43227;DHT22;28839;52.404;9.808;2023-06-04T04:49:05;9.30;99.90
43227;DHT22;28839;52.404;9.808;2023-06-04T04:55:59;9.50;99.90
43227;DHT22;28839;52.404;9.808;2023-06-04T05:02:53;9.70;99.90
43227;DHT22;28839;52.404;9.808;2023-06-04T05:09:48;9.90;99.90
43227;DHT22;28839;52.404;9.808;2023-06-04T05:16:42;10.30;99.90
43227;DHT22;28839;52.404;9.808;2023-06-04T05:23:36;11.10;99.90
43227;DHT22;28839;52.404;9.808;2023-06-04T05:30:32;11.90;99.90
43227;DHT22;28839;52.404;9.808;2023-06-04T05:37:26;12.70;99.90
43227;DHT22;28839;52.404;9.808;2023-06-04T05:44:20;13.60;99.90
43227;DHT22;28839;52.404;9.808;2023-06-04T05:51:16;14.20;99.90
43227;DHT22;28839;52.404;9.808;2023-06-04T05:58:09;14.00;99.90
43227;DHT22;28839;52.404;9.808;2023-06-04T06:05:04;14.00;99.90
43227;DHT22;28839;52.404;9.808;2023-06-04T06:11:59;14.50;99.90
43227;DHT22;28839;52.404;9.808;2023-06-04T06:18:53;14.40;99.90
43227;DHT22;28839;52.404;9.808;2023-06-04T06:25:47;14.20;99.90
43227;DHT22;28839;52.404;9.808;2023-06-04T06:32:45;15.60;99.90
43227;DHT22;28839;52.404;9.808;2023-06-04T06:39:40;17.40;99.90
43227;DHT22;28839;52.404;9.808;2023-06-04T06:46:35;17.50;99.90
43227;DHT22;28839;52.404;9.808;2023-06-04T06:53:30;18.50;99.90
43227;DHT22;28839;52.404;9.808;2023-06-04T07:00:25;19.30;99.90
43227;DHT22;28839;52.404;9.808;2023-06-04T07:07:19;20.30;98.80
43227;DHT22;28839;52.404;9.808;2023-06-04T07:14:15;21.90;97.80
43227;DHT22;28839;52.404;9.808;2023-06-04T07:21:09;22.20;96.10
43227;DHT22;28839;52.404;9.808;2023-06-04T07:28:03;22.40;95.10
43227;DHT22;28839;52.404;9.808;2023-06-04T07:34:58;22.80;90.90
43227;DHT22;28839;52.404;9.808;2023-06-04T07:41:52;23.10;91.30
43227;DHT22;28839;52.404;9.808;2023-06-04T07:48:46;23.10;89.30
43227;DHT22;28839;52.404;9.808;2023-06-04T07:55:41;23.10;90.50
43227;DHT22;28839;52.404;9.808;2023-06-04T08:02:35;23.10;85.20
43227;DHT22;28839;52.404;9.808;2023-06-04T08:09:29;23.60;85.30
43227;DHT22;28839;52.404;9.808;2023-06-04T08:16:24;25.30;84.80
43227;DHT22;28839;52.404;9.808;2023-06-04T08:23:18;25.60;76.30
43227;DHT22;28839;52.404;9.808;2023-06-04T08:30:12;25.00;76.60
43227;DHT22;28839;52.404;9.808;2023-06-04T08:37:07;24.60;72.90
43227;DHT22;28839;52.404;9.808;2023-06-04T08:44:02;24.50;71.40
43227;DHT22;28839;52.404;9.808;2023-06-04T08:51:00;25.60;70.70
43227;DHT22;28839;52.404;9.808;2023-06-04T08:57:56;25.50;71.30
43227;DHT22;28839;52.404;9.808;2023-06-04T09:04:50;24.00;70.20
43227;DHT22;28839;52.404;9.808;2023-06-04T09:11:48;25.20;65.50
43227;DHT22;28839;52.404;9.808;2023-06-04T09:18:45;25.40;66.30
43227;DHT22;28839;52.404;9.808;2023-06-04T09:25:42;25.30;64.20
43227;DHT22;28839;52.404;9.808;2023-06-04T09:32:36;24.70;62.10
43227;DHT22;28839;52.404;9.808;2023-06-04T09:39:31;24.70;64.00
43227;DHT22;28839;52.404;9.808;2023-06-04T09:46:25;25.10;62.70
43227;DHT22;28839;52.404;9.808;2023-06-04T09:53:20;25.10;59.30
43227;DHT22;28839;52.404;9.808;2023-06-04T10:00:18;24.60;58.30
43227;DHT22;28839;52.404;9.808;2023-06-04T10:07:13;25.00;62.20
43227;DHT22;28839;52.404;9.808;2023-06-04T10:14:12;24.20;55.70
43227;DHT22;28839;52.404;9.808;2023-06-04T10:21:13;23.90;56.70
43227;DHT22;28839;52.404;9.808;2023-06-04T10:28:08;24.40;58.40
43227;DHT22;28839;52.404;9.808;2023-06-04T10:35:04;24.60;58.10
43227;DHT22;28839;52.404;9.808;2023-06-04T10:42:03;24.30;56.40
43227;DHT22;28839;52.404;9.808;2023-06-04T10:48:57;24.60;59.40
43227;DHT22;28839;52.404;9.808;2023-06-04T10:55:51;24.40;56.00
43227;DHT22;28839;52.404;9.808;2023-06-04T11:02:54;24.30;54.00
43227;DHT22;28839;52.404;9.808;2023-06-04T11:09:49;24.10;53.90
43227;DHT22;28839;52.404;9.808;2023-06-04T11:16:43;24.00;52.60
43227;DHT22;28839;52.404;9.808;2023-06-04T11:23:39;23.90;53.40
43227;DHT22;28839;52.404;9.808;2023-06-04T11:30:33;23.90;52.50
43227;DHT22;28839;52.404;9.808;2023-06-04T11:37:27;23.60;53.40
43227;DHT22;28839;52.404;9.808;2023-06-04T11:44:24;23.50;53.00
43227;DHT22;28839;52.404;9.808;2023-06-04T11:51:19;23.50;53.30
43227;DHT22;28839;52.404;9.808;2023-06-04T11:58:13;23.30;55.90
43227;DHT22;28839;52.404;9.808;2023-06-04T12:05:13;22.70;54.20
43227;DHT22;28839;52.404;9.808;2023-06-04T12:12:07;23.10;53.80
43227;DHT22;28839;52.404;9.808;2023-06-04T12:19:06;23.10;54.00
43227;DHT22;28839;52.404;9.808;2023-06-04T12:26:01;23.20;53.10
43227;DHT22;28839;52.404;9.808;2023-06-04T12:32:57;23.00;55.20
43227;DHT22;28839;52.404;9.808;2023-06-04T12:39:50;23.20;54.30
43227;DHT22;28839;52.404;9.808;2023-06-04T12:46:46;23.10;54.70
43227;DHT22;28839;52.404;9.808;2023-06-04T12:53:40;22.90;53.20
43227;DHT22;28839;52.404;9.808;2023-06-04T13:00:33;22.90;54.80
43227;DHT22;28839;52.404;9.808;2023-06-04T13:07:28;23.00;56.00
43227;DHT22;28839;52.404;9.808;2023-06-04T13:14:22;23.00;56.40
43227;DHT22;28839;52.404;9.808;2023-06-04T13:21:16;23.00;54.60
43227;DHT22;28839;52.404;9.808;2023-06-04T13:28:11;23.40;56.70
43227;DHT22;28839;52.404;9.808;2023-06-04T13:35:06;23.60;54.50
43227;DHT22;28839;52.404;9.808;2023-06-04T13:42:00;23.50;56.40
43227;DHT22;28839;52.404;9.808;2023-06-04T13:48:55;23.50;56.10
43227;DHT22;28839;52.404;9.808;2023-06-04T13:55:49;23.50;56.60
43227;DHT22;28839;52.404;9.808;2023-06-04T14:02:49;23.20;57.10
43227;DHT22;28839;52.404;9.808;2023-06-04T14:09:46;23.50;56.10
43227;DHT22;28839;52.404;9.808;2023-06-04T14:16:41;23.50;57.60
43227;DHT22;28839;52.404;9.808;2023-06-04T14:23:35;23.40;57.70
43227;DHT22;28839;52.404;9.808;2023-06-04T14:30:30;23.40;57.80
43227;DHT22;28839;52.404;9.808;2023-06-04T14:37:23;23.40;56.50
43227;DHT22;28839;52.404;9.808;2023-06-04T14:44:18;23.60;56.70
43227;DHT22;28839;52.404;9.808;2023-06-04T14:51:13;23.90;57.50
43227;DHT22;28839;52.404;9.808;2023-06-04T14:58:07;23.10;56.50
43227;DHT22;28839;52.404;9.808;2023-06-04T15:05:00;23.60;56.70
43227;DHT22;28839;52.404;9.808;2023-06-04T15:11:56;23.80;57.60
43227;DHT22;28839;52.404;9.808;2023-06-04T15:18:49;23.40;57.20
43227;DHT22;28839;52.404;9.808;2023-06-04T15:25:43;23.30;57.60
43227;DHT22;28839;52.404;9.808;2023-06-04T15:32:38;23.60;57.00
43227;DHT22;28839;52.404;9.808;2023-06-04T15:39:34;23.60;57.10
43227;DHT22;28839;52.404;9.808;2023-06-04T15:46:27;23.30;57.70
43227;DHT22;28839;52.404;9.808;2023-06-04T15:53:22;23.60;58.60
43227;DHT22;28839;52.404;9.808;2023-06-04T16:00:17;23.50;56.90
43227;DHT22;28839;52.404;9.808;2023-06-04T16:07:11;23.30;58.50
43227;DHT22;28839;52.404;9.808;2023-06-04T16:14:06;23.90;58.60
43227;DHT22;28839;52.404;9.808;2023-06-04T16:21:00;23.50;57.30
43227;DHT22;28839;52.404;9.808;2023-06-04T16:27:54;23.90;58.20
43227;DHT22;28839;52.404;9.808;2023-06-04T16:34:49;23.80;60.20
43227;DHT22;28839;52.404;9.808;2023-06-04T16:41:43;23.30;60.10
43227;DHT22;28839;52.404;9.808;2023-06-04T16:48:36;23.60;59.90
43227;DHT22;28839;52.404;9.808;2023-06-04T16:55:33;23.30;60.00
43227;DHT22;28839;52.404;9.808;2023-06-04T17:02:28;23.10;60.50
43227;DHT22;28839;52.404;9.808;2023-06-04T17:09:22;23.50;60.80
43227;DHT22;28839;52.404;9.808;2023-06-04T17:16:17;23.20;60.30
43227;DHT22;28839;52.404;9.808;2023-06-04T17:23:20;23.00;60.40
43227;DHT22;28839;52.404;9.808;2023-06-04T17:30:14;22.60;62.10
43227;DHT22;28839;52.404;9.808;2023-06-04T17:37:10;22.50;61.10
43227;DHT22;28839;52.404;9.808;2023-06-04T17:44:04;22.20;61.80
43227;DHT22;28839;52.404;9.808;2023-06-04T17:50:58;22.10;62.40
43227;DHT22;28839;52.404;9.808;2023-06-04T17:57:53;21.90;63.80
43227;DHT22;28839;52.404;9.808;2023-06-04T18:04:49;21.80;63.10
43227;DHT22;28839;52.404;9.808;2023-06-04T18:11:43;21.60;63.30
43227;DHT22;28839;52.404;9.808;2023-06-04T18:18:38;21.70;62.70
43227;DHT22;28839;52.404;9.808;2023-06-04T18:25:32;21.40;64.40
43227;DHT22;28839;52.404;9.808;2023-06-04T18:32:26;21.30;65.50
43227;DHT22;28839;52.404;9.808;2023-06-04T18:39:22;21.30;65.30
43227;DHT22;28839;52.404;9.808;2023-06-04T18:46:16;21.00;66.70
43227;DHT22;28839;52.404;9.808;2023-06-04T18:53:10;20.80;66.70
43227;DHT22;28839;52.404;9.808;2023-06-04T19:00:07;20.70;67.80
43227;DHT22;28839;52.404;9.808;2023-06-04T19:07:01;20.40;69.40
43227;DHT22;28839;52.404;9.808;2023-06-04T19:13:55;20.20;70.70
43227;DHT22;28839;52.404;9.808;2023-06-04T19:20:51;19.70;73.20
43227;DHT22;28839;52.404;9.808;2023-06-04T19:27:44;19.50;75.80
43227;DHT22;28839;52.404;9.808;2023-06-04T19:34:38;19.10;79.70
43227;DHT22;28839;52.404;9.808;2023-06-04T19:41:35;18.90;84.50
43227;DHT22;28839;52.404;9.808;2023-06-04T19:48:29;18.60;90.30
43227;DHT22;28839;52.404;9.808;2023-06-04T19:55:23;18.50;91.20
43227;DHT22;28839;52.404;9.808;2023-06-04T20:02:18;18.60;87.80
43227;DHT22;28839;52.404;9.808;2023-06-04T20:09:15;18.50;90.70
43227;DHT22;28839;52.404;9.808;2023-06-04T20:16:11;18.70;92.50
43227;DHT22;28839;52.404;9.808;2023-06-04T20:23:08;18.50;94.50
43227;DHT22;28839;52.404;9.808;2023-06-04T20:30:02;18.30;97.10
43227;DHT22;28839;52.404;9.808;2023-06-04T20:36:56;18.20;99.80
43227;DHT22;28839;52.404;9.808;2023-06-04T20:43:56;18.00;99.90
43227;DHT22;28839;52.404;9.808;2023-06-04T20:50:50;17.80;99.90
43227;DHT22;28839;52.404;9.808;2023-06-04T20:57:44;17.50;99.90
43227;DHT22;28839;52.404;9.808;2023-06-04T21:04:39;17.60;99.90
43227;DHT22;28839;52.404;9.808;2023-06-04T21:11:35;17.20;99.90
43227;DHT22;28839;52.404;9.808;2023-06-04T21:18:29;16.90;99.90
43227;DHT22;28839;52.404;9.808;2023-06-04T21:25:25;16.90;99.90
43227;DHT22;28839;52.404;9.808;2023-06-04T21:32:18;16.70;99.90
43227;DHT22;28839;52.404;9.808;2023-06-04T21:39:12;16.30;99.90
43227;DHT22;28839;52.404;9.808;2023-06-04T21:46:07;16.20;99.90
43227;DHT22;28839;52.404;9.808;2023-06-04T21:53:01;16.00;99.90
43227;DHT22;28839;52.404;9.808;2023-06-04T21:59:55;16.00;99.90
43227;DHT22;28839;52.404;9.808;2023-06-04T22:06:50;15.70;99.90
43227;DHT22;28839;52.404;9.808;2023-06-04T22:13:44;15.50;99.90
43227;DHT22;28839;52.404;9.808;2023-06-04T22:20:38;15.50;99.90
43227;DHT22;28839;52.404;9.808;2023-06-04T22:27:33;15.20;99.90
43227;DHT22;28839;52.404;9.808;2023-06-04T22:34:27;14.90;99.90
43227;DHT22;28839;52.404;9.808;2023-06-04T22:41:21;14.80;99.90
43227;DHT22;28839;52.404;9.808;2023-06-04T22:48:16;14.70;99.90
43227;DHT22;28839;52.404;9.808;2023-06-04T22:55:10;14.60;99.90
43227;DHT22;28839;52.404;9.808;2023-06-04T23:02:04;14.50;99.90
43227;DHT22;28839;52.404;9.808;2023-06-04T23:08:59;14.30;99.90
43227;DHT22;28839;52.404;9.808;2023-06-04T23:15:53;14.20;99.90
43227;DHT22;28839;52.404;9.808;2023-06-04T23:22:49;14.10;99.90
43227;DHT22;28839;52.404;9.808;2023-06-04T23:29:44;13.90;99.90
43227;DHT22;28839;52.404;9.808;2023-06-04T23:36:38;13.80;99.90
43227;DHT22;28839;52.404;9.808;2023-06-04T23:43:32;13.60;99.90
43227;DHT22;28839;52.404;9.808;2023-06-04T23:50:27;13.70;99.90
43227;DHT22;28839;52.404;9.808;2023-06-04T23:57:21;13.60;99.90
